RYR5ZE EGGP-EPMO
Flight info
| Callsign | RYR5ZE |
|---|---|
| Flight time | N/A |
| Altitude | 39000 |
| Route | BARTN L975 DESIG L603 LAMSO DCT GARLU DCT SUBIX L980 ADVAB P150 DOSIX |
| Aircraft | B738/M-SDE2E3FGHIRWXY/LB1 |
Departure
| Time | 2026-05-07 15:15 |
|---|---|
| Airport | Liverpool John Lennon Airport (EGGP) |
Arrival
| Time | N/A |
|---|---|
| Airport | Warsaw Modlin Airport (EPMO) |
| Time | Latitude | Longitude | Altitude | Speed | Heading |
|---|---|---|---|---|---|
| 2026-05-07 14:49 | 53.33645 | -2.85845 | 84 ft | 0 kts | 353° |
| 2026-05-07 15:08 | 53.33635 | -2.85842 | 86 ft | 3 kts | 348° |
| 2026-05-07 15:08 | 53.33616 | -2.85832 | 84 ft | 3 kts | 326° |
| 2026-05-07 15:08 | 53.33603 | -2.85811 | 89 ft | 3 kts | 292° |
| 2026-05-07 15:08 | 53.33599 | -2.85786 | 88 ft | 1 kts | 265° |
| 2026-05-07 15:09 | 53.33600 | -2.85778 | 88 ft | 0 kts | 265° |
| 2026-05-07 15:11 | 53.33599 | -2.85798 | 88 ft | 6 kts | 265° |
| 2026-05-07 15:11 | 53.33593 | -2.85951 | 86 ft | 18 kts | 269° |
| 2026-05-07 15:11 | 53.33586 | -2.86159 | 84 ft | 18 kts | 265° |
| 2026-05-07 15:12 | 53.33527 | -2.86315 | 84 ft | 17 kts | 193° |
| 2026-05-07 15:12 | 53.33470 | -2.86346 | 86 ft | 11 kts | 243° |
| 2026-05-07 15:12 | 53.33457 | -2.86499 | 84 ft | 16 kts | 265° |
| 2026-05-07 15:12 | 53.33408 | -2.86720 | 86 ft | 16 kts | 207° |
| 2026-05-07 15:13 | 53.33361 | -2.86731 | 84 ft | 0 kts | 172° |
| 2026-05-07 15:13 | 53.33358 | -2.86730 | 84 ft | 2 kts | 170° |
| 2026-05-07 15:13 | 53.33332 | -2.86711 | 87 ft | 7 kts | 147° |
| 2026-05-07 15:13 | 53.33290 | -2.86632 | 85 ft | 11 kts | 109° |
| 2026-05-07 15:14 | 53.33292 | -2.86483 | 82 ft | 14 kts | 85° |
| 2026-05-07 15:14 | 53.33301 | -2.86279 | 82 ft | 30 kts | 85° |
| 2026-05-07 15:14 | 53.33339 | -2.85471 | 89 ft | 107 kts | 85° |
| 2026-05-07 15:14 | 53.33413 | -2.83846 | 125 ft | 167 kts | 86° |
| 2026-05-07 15:15 | 53.33490 | -2.81819 | 854 ft | 178 kts | 90° |
| 2026-05-07 15:15 | 53.33702 | -2.79717 | 1676 ft | 196 kts | 76° |
| 2026-05-07 15:15 | 53.34609 | -2.77749 | 2065 ft | 237 kts | 33° |
| 2026-05-07 15:15 | 53.36278 | -2.77083 | 2384 ft | 265 kts | 354° |
| 2026-05-07 15:16 | 53.38114 | -2.77563 | 3131 ft | 275 kts | 351° |
| 2026-05-07 15:16 | 53.40019 | -2.77949 | 4201 ft | 275 kts | 354° |
| 2026-05-07 15:16 | 53.41916 | -2.77676 | 5170 ft | 280 kts | 22° |
| 2026-05-07 15:16 | 53.43494 | -2.75793 | 6110 ft | 280 kts | 51° |
| 2026-05-07 15:17 | 53.44462 | -2.72975 | 6951 ft | 281 kts | 76° |
| 2026-05-07 15:17 | 53.44802 | -2.69741 | 7870 ft | 281 kts | 88° |
| 2026-05-07 15:17 | 53.44930 | -2.66453 | 8758 ft | 285 kts | 91° |
| 2026-05-07 15:17 | 53.45004 | -2.63146 | 9644 ft | 289 kts | 91° |
| 2026-05-07 15:18 | 53.45071 | -2.59728 | 10409 ft | 297 kts | 91° |
| 2026-05-07 15:18 | 53.45143 | -2.56118 | 10671 ft | 323 kts | 91° |
| 2026-05-07 15:18 | 53.45228 | -2.52186 | 10878 ft | 348 kts | 90° |
| 2026-05-07 15:18 | 53.45326 | -2.48024 | 11351 ft | 362 kts | 90° |
| 2026-05-07 15:19 | 53.45435 | -2.43767 | 12148 ft | 365 kts | 90° |
| 2026-05-07 15:19 | 53.45547 | -2.39493 | 12994 ft | 368 kts | 90° |
| 2026-05-07 15:19 | 53.45659 | -2.35236 | 13772 ft | 372 kts | 90° |
| 2026-05-07 15:19 | 53.45772 | -2.30871 | 14469 ft | 376 kts | 90° |
| 2026-05-07 15:20 | 53.45885 | -2.26455 | 15189 ft | 380 kts | 90° |
| 2026-05-07 15:20 | 53.45997 | -2.21985 | 15880 ft | 385 kts | 90° |
| 2026-05-07 15:20 | 53.46109 | -2.17465 | 16557 ft | 390 kts | 90° |
| 2026-05-07 15:20 | 53.46221 | -2.12890 | 17232 ft | 394 kts | 90° |
| 2026-05-07 15:21 | 53.46331 | -2.08268 | 17893 ft | 399 kts | 89° |
| 2026-05-07 15:21 | 53.46441 | -2.03615 | 18520 ft | 403 kts | 89° |
| 2026-05-07 15:21 | 53.46550 | -1.98881 | 19112 ft | 406 kts | 90° |
| 2026-05-07 15:21 | 53.46659 | -1.94125 | 19719 ft | 409 kts | 89° |
| 2026-05-07 15:22 | 53.46766 | -1.89344 | 20315 ft | 412 kts | 90° |
| 2026-05-07 15:22 | 53.46872 | -1.84530 | 20875 ft | 415 kts | 90° |
| 2026-05-07 15:22 | 53.46976 | -1.79671 | 21443 ft | 418 kts | 90° |
| 2026-05-07 15:22 | 53.47080 | -1.74779 | 22002 ft | 421 kts | 90° |
| 2026-05-07 15:23 | 53.47183 | -1.69864 | 22535 ft | 424 kts | 90° |
| 2026-05-07 15:23 | 53.47284 | -1.64887 | 23063 ft | 427 kts | 90° |
| 2026-05-07 15:23 | 53.47262 | -1.59894 | 23573 ft | 429 kts | 97° |
| 2026-05-07 15:23 | 53.46776 | -1.54962 | 24011 ft | 429 kts | 107° |
| 2026-05-07 15:24 | 53.45912 | -1.50177 | 24524 ft | 428 kts | 109° |
| 2026-05-07 15:24 | 53.45003 | -1.45403 | 24997 ft | 429 kts | 109° |
| 2026-05-07 15:24 | 53.44100 | -1.40625 | 25442 ft | 431 kts | 109° |
| 2026-05-07 15:24 | 53.43213 | -1.35810 | 25873 ft | 433 kts | 109° |
| 2026-05-07 15:25 | 53.42333 | -1.30970 | 26304 ft | 434 kts | 108° |
| 2026-05-07 15:25 | 53.41458 | -1.26116 | 26724 ft | 436 kts | 108° |
| 2026-05-07 15:25 | 53.40601 | -1.21226 | 27132 ft | 438 kts | 108° |
| 2026-05-07 15:25 | 53.39731 | -1.16335 | 27544 ft | 439 kts | 108° |
| 2026-05-07 15:26 | 53.38836 | -1.11441 | 27936 ft | 440 kts | 109° |
| 2026-05-07 15:26 | 53.37928 | -1.06525 | 28304 ft | 442 kts | 109° |
| 2026-05-07 15:26 | 53.37016 | -1.01607 | 28703 ft | 443 kts | 109° |
| 2026-05-07 15:26 | 53.36104 | -0.96684 | 29228 ft | 440 kts | 109° |
| 2026-05-07 15:27 | 53.35200 | -0.91809 | 29855 ft | 436 kts | 108° |
| 2026-05-07 15:27 | 53.34316 | -0.87042 | 30402 ft | 432 kts | 108° |
| 2026-05-07 15:27 | 53.33422 | -0.82236 | 30808 ft | 431 kts | 108° |
| 2026-05-07 15:27 | 53.32531 | -0.77450 | 31150 ft | 432 kts | 108° |
| 2026-05-07 15:28 | 53.31636 | -0.72660 | 31521 ft | 431 kts | 109° |
| 2026-05-07 15:28 | 53.30741 | -0.67891 | 31947 ft | 429 kts | 109° |
| 2026-05-07 15:28 | 53.29845 | -0.63128 | 32369 ft | 427 kts | 109° |
| 2026-05-07 15:28 | 53.29255 | -0.60000 | 32617 ft | 426 kts | 109° |
| 2026-05-07 15:29 | 53.28360 | -0.55266 | 32983 ft | 426 kts | 109° |
| 2026-05-07 15:29 | 53.27466 | -0.50545 | 33373 ft | 424 kts | 109° |
| 2026-05-07 15:29 | 53.26286 | -0.44328 | 33872 ft | 423 kts | 109° |
| 2026-05-07 15:29 | 53.25686 | -0.41162 | 34101 ft | 423 kts | 108° |
| 2026-05-07 15:30 | 53.24801 | -0.36474 | 34346 ft | 423 kts | 109° |
| 2026-05-07 15:30 | 53.23911 | -0.31773 | 34517 ft | 426 kts | 109° |
| 2026-05-07 15:30 | 53.23023 | -0.27106 | 34712 ft | 427 kts | 109° |
| 2026-05-07 15:30 | 53.22112 | -0.22371 | 34934 ft | 428 kts | 109° |
| 2026-05-07 15:31 | 53.21197 | -0.17635 | 35151 ft | 429 kts | 109° |
| 2026-05-07 15:31 | 53.20277 | -0.12882 | 35340 ft | 431 kts | 109° |
| 2026-05-07 15:31 | 53.19352 | -0.08105 | 35555 ft | 432 kts | 109° |
| 2026-05-07 15:31 | 53.18434 | -0.03379 | 35761 ft | 433 kts | 109° |
| 2026-05-07 15:32 | 53.17501 | 0.01422 | 35944 ft | 435 kts | 109° |
| 2026-05-07 15:32 | 53.16570 | 0.06214 | 36146 ft | 436 kts | 109° |
| 2026-05-07 15:32 | 53.15631 | 0.11040 | 36355 ft | 437 kts | 109° |
| 2026-05-07 15:32 | 53.14692 | 0.15860 | 36553 ft | 438 kts | 109° |
| 2026-05-07 15:33 | 53.13748 | 0.20693 | 36750 ft | 439 kts | 109° |
| 2026-05-07 15:33 | 53.12798 | 0.25547 | 36940 ft | 440 kts | 109° |
| 2026-05-07 15:33 | 53.11847 | 0.30393 | 37123 ft | 441 kts | 109° |
| 2026-05-07 15:33 | 53.10890 | 0.35257 | 37272 ft | 443 kts | 110° |
| 2026-05-07 15:34 | 53.09928 | 0.40128 | 37472 ft | 444 kts | 110° |
| 2026-05-07 15:34 | 53.08977 | 0.44939 | 37640 ft | 445 kts | 110° |
| 2026-05-07 15:34 | 53.08004 | 0.49847 | 37803 ft | 446 kts | 110° |
| 2026-05-07 15:34 | 53.07032 | 0.54736 | 37961 ft | 447 kts | 110° |
| 2026-05-07 15:35 | 53.06050 | 0.59661 | 38109 ft | 448 kts | 110° |
| 2026-05-07 15:35 | 53.05066 | 0.64587 | 38293 ft | 449 kts | 110° |
| 2026-05-07 15:35 | 53.04081 | 0.69505 | 38461 ft | 449 kts | 110° |
| 2026-05-07 15:35 | 53.03091 | 0.74436 | 38607 ft | 450 kts | 110° |
| 2026-05-07 15:36 | 53.02096 | 0.79377 | 38755 ft | 451 kts | 110° |
| 2026-05-07 15:36 | 53.01100 | 0.84317 | 38876 ft | 451 kts | 110° |
| 2026-05-07 15:36 | 53.00099 | 0.89268 | 39021 ft | 451 kts | 110° |
| 2026-05-07 15:36 | 52.99095 | 0.94224 | 39072 ft | 452 kts | 110° |
| 2026-05-07 15:37 | 52.97337 | 1.04209 | 39082 ft | 454 kts | 103° |
| 2026-05-07 15:37 | 52.96161 | 1.14523 | 39079 ft | 454 kts | 102° |
| 2026-05-07 15:38 | 52.95012 | 1.24828 | 39085 ft | 454 kts | 102° |
| 2026-05-07 15:38 | 52.93826 | 1.35117 | 39088 ft | 454 kts | 102° |
| 2026-05-07 15:39 | 52.92616 | 1.45374 | 39089 ft | 453 kts | 103° |
| 2026-05-07 15:39 | 52.91399 | 1.55576 | 39091 ft | 453 kts | 103° |
| 2026-05-07 15:40 | 52.90165 | 1.65837 | 39099 ft | 453 kts | 103° |
| 2026-05-07 15:40 | 52.88927 | 1.76069 | 39099 ft | 453 kts | 103° |
| 2026-05-07 15:41 | 52.87679 | 1.86299 | 39100 ft | 453 kts | 103° |
| 2026-05-07 15:41 | 52.86423 | 1.96527 | 39100 ft | 453 kts | 103° |
| 2026-05-07 15:42 | 52.85165 | 2.06683 | 39101 ft | 453 kts | 103° |
| 2026-05-07 15:42 | 52.83890 | 2.16907 | 39100 ft | 453 kts | 103° |
| 2026-05-07 15:43 | 52.82615 | 2.27056 | 39100 ft | 453 kts | 103° |
| 2026-05-07 15:43 | 52.81327 | 2.37239 | 39099 ft | 452 kts | 103° |
| 2026-05-07 15:44 | 52.80028 | 2.47437 | 39105 ft | 453 kts | 103° |
| 2026-05-07 15:44 | 52.78717 | 2.57624 | 39105 ft | 453 kts | 103° |
| 2026-05-07 15:45 | 52.77404 | 2.67721 | 39104 ft | 453 kts | 103° |
| 2026-05-07 15:45 | 52.76076 | 2.77894 | 39102 ft | 453 kts | 103° |
| 2026-05-07 15:46 | 52.74107 | 2.93151 | 39102 ft | 453 kts | 103° |
| 2026-05-07 15:47 | 52.73372 | 3.03471 | 39095 ft | 455 kts | 88° |
| 2026-05-07 15:47 | 52.73838 | 3.13841 | 39098 ft | 455 kts | 86° |